createdAt,value
2022-12-17T00:00:24.456Z,1016.91
2022-12-17T00:01:20.949Z,1016.91
2022-12-17T00:02:19.932Z,1016.98
2022-12-17T00:03:19.996Z,1017.03
2022-12-17T00:04:19.933Z,1017.00
2022-12-17T00:05:19.850Z,1016.95
2022-12-17T00:06:19.843Z,1017.01
2022-12-17T00:07:19.853Z,1017.04
2022-12-17T00:08:19.816Z,1017.06
2022-12-17T00:09:19.814Z,1017.06
2022-12-17T00:10:19.797Z,1017.07
2022-12-17T00:11:19.804Z,1017.11
2022-12-17T00:12:19.783Z,1017.16
2022-12-17T00:13:19.764Z,1017.12
2022-12-17T00:14:19.758Z,1017.11
2022-12-17T00:15:19.746Z,1017.16
2022-12-17T00:16:19.873Z,1017.08
2022-12-17T00:17:19.764Z,1017.11
2022-12-17T00:18:19.721Z,1017.15
2022-12-17T00:19:19.695Z,1017.18
2022-12-17T00:20:19.692Z,1017.13
2022-12-17T00:21:19.681Z,1017.24
2022-12-17T00:22:19.693Z,1017.18
2022-12-17T00:23:19.678Z,1017.13
2022-12-17T00:24:19.656Z,1017.21
2022-12-17T00:25:19.639Z,1017.25
2022-12-17T00:26:19.631Z,1017.22
2022-12-17T00:27:19.632Z,1017.25
2022-12-17T00:28:19.620Z,1017.19
2022-12-17T00:29:19.589Z,1017.27
2022-12-17T00:30:19.588Z,1017.30
2022-12-17T00:31:19.672Z,1017.25
2022-12-17T00:32:19.598Z,1017.25
2022-12-17T00:33:19.589Z,1017.23
2022-12-17T00:34:19.540Z,1017.31
2022-12-17T00:35:19.533Z,1017.22
2022-12-17T00:36:19.539Z,1017.31
2022-12-17T00:37:19.537Z,1017.29
2022-12-17T00:38:19.502Z,1017.31
2022-12-17T00:39:19.488Z,1017.23
2022-12-17T00:40:19.477Z,1017.25
2022-12-17T00:41:19.463Z,1017.25
2022-12-17T00:42:19.483Z,1017.26
2022-12-17T00:43:19.442Z,1017.28
2022-12-17T00:44:19.457Z,1017.26
2022-12-17T00:45:19.448Z,1017.27
2022-12-17T00:46:19.485Z,1017.29
2022-12-17T00:47:19.402Z,1017.35
2022-12-17T00:48:19.394Z,1017.29
2022-12-17T00:49:19.400Z,1017.35
2022-12-17T00:50:19.375Z,1017.38
2022-12-17T00:51:19.385Z,1017.37
2022-12-17T00:52:19.351Z,1017.43
2022-12-17T00:53:19.342Z,1017.36
2022-12-17T00:54:19.330Z,1017.42
2022-12-17T00:55:19.339Z,1017.45
2022-12-17T00:56:19.324Z,1017.44
2022-12-17T00:57:19.295Z,1017.46
2022-12-17T00:58:19.287Z,1017.41
2022-12-17T00:59:19.269Z,1017.49
2022-12-17T01:00:19.267Z,1017.47
2022-12-17T01:01:19.429Z,1017.48
2022-12-17T01:02:19.345Z,1017.51
2022-12-17T01:03:19.308Z,1017.52
2022-12-17T01:04:19.220Z,1017.55
2022-12-17T01:05:19.223Z,1017.56
2022-12-17T01:06:19.223Z,1017.58
2022-12-17T01:07:19.189Z,1017.55
2022-12-17T01:08:19.203Z,1017.56
2022-12-17T01:09:19.162Z,1017.63
2022-12-17T01:10:19.155Z,1017.66
2022-12-17T01:11:19.162Z,1017.61
2022-12-17T01:12:19.138Z,1017.66
2022-12-17T01:13:19.149Z,1017.70
2022-12-17T01:14:19.112Z,1017.71
2022-12-17T01:15:19.102Z,1017.66
2022-12-17T01:16:19.177Z,1017.64
2022-12-17T01:17:19.082Z,1017.76
2022-12-17T01:18:19.092Z,1017.68
2022-12-17T01:19:19.056Z,1017.69
2022-12-17T01:20:19.057Z,1017.80
2022-12-17T01:21:19.059Z,1017.80
2022-12-17T01:22:19.027Z,1017.78
2022-12-17T01:23:19.032Z,1017.77
2022-12-17T01:24:19.005Z,1017.75
2022-12-17T01:25:18.992Z,1017.77
2022-12-17T01:26:18.986Z,1017.75
2022-12-17T01:27:18.977Z,1017.89
2022-12-17T01:28:18.987Z,1017.85
2022-12-17T01:29:18.977Z,1017.74
2022-12-17T01:30:18.942Z,1017.82
2022-12-17T01:31:18.999Z,1017.76
2022-12-17T01:32:18.948Z,1017.71
2022-12-17T01:33:18.908Z,1017.81
2022-12-17T01:34:18.933Z,1017.72
2022-12-17T01:35:18.883Z,1017.84
2022-12-17T01:36:18.878Z,1017.89
2022-12-17T01:37:18.890Z,1017.86
2022-12-17T01:38:18.858Z,1017.83
2022-12-17T01:39:18.845Z,1017.83
2022-12-17T01:40:18.863Z,1017.84
2022-12-17T01:41:18.821Z,1017.82
2022-12-17T01:42:18.833Z,1017.90
2022-12-17T01:43:18.800Z,1017.90
2022-12-17T01:44:18.795Z,1017.89
2022-12-17T01:45:18.777Z,1017.90
2022-12-17T01:46:18.865Z,1017.82
2022-12-17T01:47:18.755Z,1017.88
2022-12-17T01:48:18.760Z,1017.84
2022-12-17T01:49:18.737Z,1017.88
2022-12-17T01:50:18.751Z,1017.90
2022-12-17T01:51:18.717Z,1017.91
2022-12-17T01:52:18.707Z,1017.95
2022-12-17T01:53:18.710Z,1017.91
2022-12-17T01:54:18.684Z,1017.94
2022-12-17T01:55:18.693Z,1017.93
2022-12-17T01:56:18.685Z,1017.90
2022-12-17T01:57:18.648Z,1017.93
2022-12-17T01:58:18.641Z,1017.91
2022-12-17T01:59:18.629Z,1017.93
2022-12-17T02:00:18.620Z,1017.91
2022-12-17T02:01:18.723Z,1017.85
2022-12-17T02:02:18.725Z,1017.92
2022-12-17T02:03:18.625Z,1017.95
2022-12-17T02:04:18.582Z,1017.94
2022-12-17T02:05:18.576Z,1017.93
2022-12-17T02:06:18.574Z,1017.98
2022-12-17T02:07:18.630Z,1017.92
2022-12-17T02:08:18.536Z,1017.88
2022-12-17T02:09:18.544Z,1017.85
2022-12-17T02:10:18.519Z,1017.95
2022-12-17T02:11:18.501Z,1017.96
2022-12-17T02:12:18.517Z,1017.91
2022-12-17T02:13:18.476Z,1017.87
2022-12-17T02:14:18.469Z,1017.85
2022-12-17T02:15:18.461Z,1017.93
2022-12-17T02:16:18.535Z,1017.93
2022-12-17T02:17:18.434Z,1017.91
2022-12-17T02:18:18.426Z,1017.91
2022-12-17T02:19:18.410Z,1017.95
2022-12-17T02:20:18.409Z,1017.88
2022-12-17T02:21:18.418Z,1017.94
2022-12-17T02:22:18.382Z,1017.90
2022-12-17T02:23:18.376Z,1017.91
2022-12-17T02:24:18.361Z,1017.96
2022-12-17T02:25:18.374Z,1017.89
2022-12-17T02:26:18.369Z,1017.90
2022-12-17T02:27:18.344Z,1017.96
2022-12-17T02:28:18.324Z,1017.92
2022-12-17T02:29:18.306Z,1017.97
2022-12-17T02:30:18.301Z,1017.93
2022-12-17T02:31:18.413Z,1017.93
2022-12-17T02:32:18.297Z,1017.95
2022-12-17T02:33:18.266Z,1017.93
2022-12-17T02:34:18.255Z,1017.96
2022-12-17T02:35:18.244Z,1017.92
2022-12-17T02:36:18.237Z,1017.91
2022-12-17T02:37:18.244Z,1017.97
2022-12-17T02:38:18.216Z,1017.97
2022-12-17T02:39:18.203Z,1017.92
2022-12-17T02:40:18.193Z,1017.98
2022-12-17T02:41:18.197Z,1017.94
2022-12-17T02:42:18.194Z,1017.99
2022-12-17T02:43:18.167Z,1018.03
2022-12-17T02:44:18.147Z,1018.03
2022-12-17T02:45:18.137Z,1018.00
2022-12-17T02:46:18.181Z,1018.04
2022-12-17T02:47:18.147Z,1018.03
2022-12-17T02:48:18.100Z,1018.07
2022-12-17T02:49:18.107Z,1018.11
2022-12-17T02:50:18.085Z,1018.05
2022-12-17T02:51:18.077Z,1018.06
2022-12-17T02:52:18.064Z,1018.08
2022-12-17T02:53:18.068Z,1018.07
2022-12-17T02:54:18.038Z,1018.08
2022-12-17T02:55:18.035Z,1018.09
2022-12-17T02:56:18.019Z,1018.05
2022-12-17T02:57:18.029Z,1018.04
2022-12-17T02:58:18.017Z,1018.07
2022-12-17T02:59:17.989Z,1018.09
2022-12-17T03:00:17.976Z,1018.11
2022-12-17T03:01:18.087Z,1018.13
2022-12-17T03:02:18.144Z,1018.18
2022-12-17T03:03:18.040Z,1018.21
2022-12-17T03:04:17.950Z,1018.15
2022-12-17T03:05:43.528Z,1018.20
2022-12-17T03:06:18.907Z,1018.18
2022-12-17T03:07:17.903Z,1018.37
2022-12-17T03:08:17.897Z,1018.24
2022-12-17T03:09:17.906Z,1018.35
2022-12-17T03:10:17.889Z,1018.31
2022-12-17T03:11:17.861Z,1018.32
2022-12-17T03:12:17.849Z,1018.31
2022-12-17T03:13:17.859Z,1018.31
2022-12-17T03:14:17.834Z,1018.28
2022-12-17T03:15:17.845Z,1018.25
2022-12-17T03:16:17.834Z,1018.26
2022-12-17T03:17:17.802Z,1018.33
2022-12-17T03:18:17.781Z,1018.32
2022-12-17T03:19:17.775Z,1018.25
2022-12-17T03:20:17.788Z,1018.37
2022-12-17T03:21:17.783Z,1018.31
2022-12-17T03:22:17.740Z,1018.36
2022-12-17T03:23:17.734Z,1018.38
2022-12-17T03:24:17.721Z,1018.35
2022-12-17T03:25:17.711Z,1018.38
2022-12-17T03:26:17.720Z,1018.39
2022-12-17T03:27:17.698Z,1018.45
2022-12-17T03:28:17.673Z,1018.38
2022-12-17T03:29:17.702Z,1018.40
2022-12-17T03:30:17.653Z,1018.45
2022-12-17T03:31:17.748Z,1018.42
2022-12-17T03:32:17.645Z,1018.43
2022-12-17T03:33:17.629Z,1018.46
2022-12-17T03:34:17.614Z,1018.41
2022-12-17T03:35:17.605Z,1018.45
2022-12-17T03:36:17.596Z,1018.45
2022-12-17T03:37:17.606Z,1018.45
2022-12-17T03:38:17.577Z,1018.43
2022-12-17T03:39:17.564Z,1018.46
2022-12-17T03:40:17.551Z,1018.52
2022-12-17T03:41:17.562Z,1018.50
2022-12-17T03:42:17.552Z,1018.49
2022-12-17T03:43:17.525Z,1018.46
2022-12-17T03:44:17.505Z,1018.41
2022-12-17T03:45:17.526Z,1018.48
2022-12-17T03:46:17.623Z,1018.53
2022-12-17T03:47:17.536Z,1018.52
2022-12-17T03:48:17.462Z,1018.56
2022-12-17T03:49:17.458Z,1018.53
2022-12-17T03:50:17.446Z,1018.58
2022-12-17T03:51:17.435Z,1018.60
2022-12-17T03:52:17.451Z,1018.59
2022-12-17T03:53:17.415Z,1018.64
2022-12-17T03:54:17.400Z,1018.60
2022-12-17T03:55:17.395Z,1018.58
2022-12-17T03:56:17.382Z,1018.62
2022-12-17T03:57:17.416Z,1018.61
2022-12-17T03:58:17.365Z,1018.64
2022-12-17T03:59:17.362Z,1018.65
2022-12-17T04:00:17.339Z,1018.62
2022-12-17T04:01:17.497Z,1018.69
2022-12-17T04:02:17.619Z,1018.64
2022-12-17T04:03:17.437Z,1018.65
2022-12-17T04:04:17.295Z,1018.64
2022-12-17T04:05:20.391Z,1018.72
2022-12-17T04:06:17.272Z,1018.67
2022-12-17T04:07:17.267Z,1018.65
2022-12-17T04:08:17.268Z,1018.66
2022-12-17T04:09:17.247Z,1018.75
2022-12-17T04:10:17.256Z,1018.68
2022-12-17T04:11:17.229Z,1018.73
2022-12-17T04:12:17.205Z,1018.82
2022-12-17T04:13:17.203Z,1018.83
2022-12-17T04:14:17.189Z,1018.81
2022-12-17T04:15:17.181Z,1018.80
2022-12-17T04:16:17.279Z,1018.82
2022-12-17T04:17:17.197Z,1018.81
2022-12-17T04:18:17.145Z,1018.85
2022-12-17T04:19:17.139Z,1018.82
2022-12-17T04:20:17.129Z,1018.90
2022-12-17T04:21:17.136Z,1018.90
2022-12-17T04:22:17.121Z,1018.85
2022-12-17T04:23:17.096Z,1018.87
2022-12-17T04:24:17.081Z,1018.87
2022-12-17T04:25:17.077Z,1018.91
2022-12-17T04:26:17.062Z,1018.86
2022-12-17T04:27:17.073Z,1018.96
2022-12-17T04:28:17.035Z,1018.91
2022-12-17T04:29:17.031Z,1018.98
2022-12-17T04:30:17.022Z,1018.95
2022-12-17T04:31:17.079Z,1018.96
2022-12-17T04:32:17.020Z,1018.95
2022-12-17T04:33:17.008Z,1019.01
2022-12-17T04:34:16.997Z,1019.00
2022-12-17T04:35:16.968Z,1019.03
2022-12-17T04:36:16.957Z,1019.01
2022-12-17T04:37:16.971Z,1019.08
2022-12-17T04:38:16.933Z,1019.08
2022-12-17T04:39:16.919Z,1019.07
2022-12-17T04:40:16.911Z,1019.08
2022-12-17T04:41:16.906Z,1019.08
2022-12-17T04:42:16.912Z,1019.10
2022-12-17T04:43:16.883Z,1019.07
2022-12-17T04:44:16.890Z,1019.10
2022-12-17T04:45:16.859Z,1019.11
2022-12-17T04:46:16.901Z,1019.14
2022-12-17T04:47:16.851Z,1019.12
2022-12-17T04:48:16.850Z,1019.10
2022-12-17T04:49:16.861Z,1019.13
2022-12-17T04:50:16.817Z,1019.09
2022-12-17T04:51:16.798Z,1019.09
2022-12-17T04:52:16.785Z,1019.07
2022-12-17T04:53:16.801Z,1019.08
2022-12-17T04:54:16.784Z,1019.09
2022-12-17T04:55:16.752Z,1019.11
2022-12-17T04:56:16.745Z,1019.06
2022-12-17T04:57:16.731Z,1019.13
2022-12-17T04:58:16.731Z,1019.04
2022-12-17T04:59:16.708Z,1019.09
2022-12-17T05:00:16.703Z,1019.15
2022-12-17T05:01:16.873Z,1019.14
2022-12-17T05:02:16.779Z,1019.09
2022-12-17T05:03:16.729Z,1019.12
2022-12-17T05:04:16.655Z,1019.17
2022-12-17T05:05:16.747Z,1019.17
2022-12-17T05:06:16.636Z,1019.21
2022-12-17T05:07:16.623Z,1019.17
2022-12-17T05:08:16.630Z,1019.20
2022-12-17T05:09:16.605Z,1019.22
2022-12-17T05:10:16.607Z,1019.14
2022-12-17T05:11:16.582Z,1019.21
2022-12-17T05:12:16.568Z,1019.21
2022-12-17T05:13:16.568Z,1019.23
2022-12-17T05:14:16.545Z,1019.22
2022-12-17T05:15:16.557Z,1019.30
2022-12-17T05:16:16.601Z,1019.26
2022-12-17T05:17:16.547Z,1019.27
2022-12-17T05:18:16.504Z,1019.28
2022-12-17T05:19:16.493Z,1019.31
2022-12-17T05:20:16.502Z,1019.35
2022-12-17T05:21:16.510Z,1019.34
2022-12-17T05:22:16.465Z,1019.37
2022-12-17T05:23:16.457Z,1019.36
2022-12-17T05:24:16.441Z,1019.34
2022-12-17T05:25:16.451Z,1019.38
2022-12-17T05:26:16.418Z,1019.37
2022-12-17T05:27:16.408Z,1019.46
2022-12-17T05:28:16.414Z,1019.39
2022-12-17T05:29:16.405Z,1019.41
2022-12-17T05:30:16.375Z,1019.44
2022-12-17T05:31:16.475Z,1019.46
2022-12-17T05:32:16.355Z,1019.47
2022-12-17T05:33:16.346Z,1019.46
2022-12-17T05:34:16.327Z,1019.45
2022-12-17T05:35:16.324Z,1019.46
2022-12-17T05:36:16.342Z,1019.47
2022-12-17T05:37:16.325Z,1019.41
2022-12-17T05:38:16.288Z,1019.44
2022-12-17T05:39:16.281Z,1019.41
2022-12-17T05:40:16.263Z,1019.41
2022-12-17T05:41:16.277Z,1019.51
2022-12-17T05:42:16.242Z,1019.42
2022-12-17T05:43:16.234Z,1019.52
2022-12-17T05:44:16.250Z,1019.56
2022-12-17T05:45:16.224Z,1019.62
2022-12-17T05:46:16.249Z,1019.60
2022-12-17T05:47:16.192Z,1019.66
2022-12-17T05:48:16.199Z,1019.61
2022-12-17T05:49:16.174Z,1019.59
2022-12-17T05:50:16.161Z,1019.62
2022-12-17T05:51:16.149Z,1019.61
2022-12-17T05:52:16.140Z,1019.63
2022-12-17T05:53:16.170Z,1019.69
2022-12-17T05:54:16.144Z,1019.73
2022-12-17T05:55:16.112Z,1019.74
2022-12-17T05:56:16.095Z,1019.80
2022-12-17T05:57:16.111Z,1019.85
2022-12-17T05:58:16.073Z,1019.83
2022-12-17T05:59:16.068Z,1019.81
2022-12-17T06:00:16.079Z,1019.82
2022-12-17T06:01:16.064Z,1019.85
2022-12-17T06:02:16.124Z,1019.78
2022-12-17T06:03:16.110Z,1019.80
2022-12-17T06:04:16.061Z,1019.82
2022-12-17T06:05:16.027Z,1019.85
2022-12-17T06:06:16.003Z,1019.89
2022-12-17T06:07:15.979Z,1019.85
2022-12-17T06:08:15.965Z,1019.90
2022-12-17T06:09:15.981Z,1019.90
2022-12-17T06:10:15.961Z,1019.88
2022-12-17T06:11:15.980Z,1019.92
2022-12-17T06:12:15.919Z,1019.91
2022-12-17T06:13:15.916Z,1019.90
2022-12-17T06:14:15.900Z,1019.87
2022-12-17T06:15:15.894Z,1019.84
2022-12-17T06:16:15.892Z,1019.85
2022-12-17T06:17:15.899Z,1019.83
2022-12-17T06:18:17.063Z,1019.90
2022-12-17T06:19:15.851Z,1019.87
2022-12-17T06:20:15.866Z,1019.95
2022-12-17T06:21:15.834Z,1019.92
2022-12-17T06:22:15.818Z,1019.89
2022-12-17T06:23:15.806Z,1019.94
2022-12-17T06:24:15.793Z,1019.94
2022-12-17T06:25:15.828Z,1020.01
2022-12-17T06:26:15.782Z,1020.03
2022-12-17T06:27:15.766Z,1020.05
2022-12-17T06:28:15.755Z,1020.00
2022-12-17T06:29:15.745Z,1020.00
2022-12-17T06:30:18.975Z,1020.00
2022-12-17T06:31:15.787Z,1019.98
2022-12-17T06:32:15.739Z,1020.02
2022-12-17T06:33:15.700Z,1020.06
2022-12-17T06:34:15.713Z,1020.07
2022-12-17T06:35:15.730Z,1020.11
2022-12-17T06:36:22.121Z,1020.10
2022-12-17T06:37:16.658Z,1020.10
2022-12-17T06:38:15.646Z,1020.16
2022-12-17T06:39:15.635Z,1020.14
2022-12-17T06:40:15.644Z,1020.11
2022-12-17T06:41:15.667Z,1020.12
2022-12-17T06:42:15.602Z,1020.15
2022-12-17T06:43:15.596Z,1020.17
2022-12-17T06:44:15.582Z,1020.28
2022-12-17T06:45:15.578Z,1020.24
2022-12-17T06:46:15.608Z,1020.24
2022-12-17T06:47:15.551Z,1020.29
2022-12-17T06:48:15.540Z,1020.31
2022-12-17T06:49:15.538Z,1020.24
2022-12-17T06:50:15.519Z,1020.27
2022-12-17T06:51:15.531Z,1020.30
2022-12-17T06:52:15.497Z,1020.31
2022-12-17T06:53:15.489Z,1020.33
2022-12-17T06:54:15.483Z,1020.38
2022-12-17T06:55:15.482Z,1020.39
2022-12-17T06:56:15.473Z,1020.39
2022-12-17T06:57:15.476Z,1020.46
2022-12-17T06:58:15.433Z,1020.47
2022-12-17T06:59:15.426Z,1020.42
2022-12-17T07:00:15.432Z,1020.47
2022-12-17T07:01:15.605Z,1020.55
2022-12-17T07:02:15.523Z,1020.55
2022-12-17T07:03:15.493Z,1020.57
2022-12-17T07:04:15.375Z,1020.63
2022-12-17T07:05:15.357Z,1020.60
2022-12-17T07:06:15.347Z,1020.56
2022-12-17T07:07:15.356Z,1020.68
2022-12-17T07:08:15.330Z,1020.67
2022-12-17T07:09:15.320Z,1020.71
2022-12-17T07:10:15.310Z,1020.67
2022-12-17T07:11:15.291Z,1020.72
2022-12-17T07:12:15.414Z,1020.75
2022-12-17T07:13:15.289Z,1020.78
2022-12-17T07:14:15.266Z,1020.76
2022-12-17T07:15:15.248Z,1020.76
2022-12-17T07:16:15.295Z,1020.77
2022-12-17T07:17:15.226Z,1020.80
2022-12-17T07:18:15.245Z,1020.82
2022-12-17T07:19:15.206Z,1020.77
2022-12-17T07:20:15.203Z,1020.77
2022-12-17T07:21:15.190Z,1020.78
2022-12-17T07:22:15.180Z,1020.84
2022-12-17T07:23:15.188Z,1020.86
2022-12-17T07:24:15.158Z,1020.79
2022-12-17T07:25:15.143Z,1020.86
2022-12-17T07:26:15.140Z,1020.86
2022-12-17T07:27:15.126Z,1020.86
2022-12-17T07:28:15.148Z,1020.88
2022-12-17T07:29:15.125Z,1020.93
2022-12-17T07:30:15.102Z,1020.88
2022-12-17T07:31:15.177Z,1020.86
2022-12-17T07:32:15.076Z,1020.87
2022-12-17T07:33:15.058Z,1020.89
2022-12-17T07:34:15.084Z,1020.90
2022-12-17T07:35:15.046Z,1020.92
2022-12-17T07:36:15.033Z,1020.88
2022-12-17T07:37:20.315Z,1020.89
2022-12-17T07:38:16.006Z,1020.89
2022-12-17T07:39:14.996Z,1020.97
2022-12-17T07:40:14.988Z,1020.98
2022-12-17T07:41:14.972Z,1021.02
2022-12-17T07:42:14.988Z,1021.06
2022-12-17T07:43:14.948Z,1021.06
2022-12-17T07:44:14.951Z,1021.13
2022-12-17T07:45:14.947Z,1021.08
2022-12-17T07:46:15.025Z,1021.14
2022-12-17T07:47:14.929Z,1021.10
2022-12-17T07:48:14.896Z,1021.15
2022-12-17T07:49:14.894Z,1021.15
2022-12-17T07:50:14.876Z,1021.21
2022-12-17T07:51:14.871Z,1021.23
2022-12-17T07:52:14.861Z,1021.23
2022-12-17T07:53:14.862Z,1021.23
2022-12-17T07:54:14.863Z,1021.20
2022-12-17T07:55:18.212Z,1021.29
2022-12-17T07:56:14.813Z,1021.30
2022-12-17T07:57:14.798Z,1021.32
2022-12-17T07:58:14.793Z,1021.32
2022-12-17T07:59:14.796Z,1021.41
2022-12-17T08:00:14.775Z,1021.42
2022-12-17T08:01:15.045Z,1021.46
2022-12-17T08:02:15.012Z,1021.46
2022-12-17T08:03:14.768Z,1021.46
2022-12-17T08:04:14.766Z,1021.44
2022-12-17T08:05:14.710Z,1021.51
2022-12-17T08:06:14.713Z,1021.51
2022-12-17T08:07:14.690Z,1021.46
2022-12-17T08:08:14.687Z,1021.48
2022-12-17T08:09:14.674Z,1021.52
2022-12-17T08:10:14.684Z,1021.44
2022-12-17T08:11:14.656Z,1021.53
2022-12-17T08:12:14.641Z,1021.54
2022-12-17T08:13:14.655Z,1021.53
2022-12-17T08:14:14.624Z,1021.55
2022-12-17T08:15:14.611Z,1021.59
2022-12-17T08:16:14.625Z,1021.57
2022-12-17T08:17:14.609Z,1021.57
2022-12-17T08:18:14.595Z,1021.55
2022-12-17T08:19:14.567Z,1021.57
2022-12-17T08:20:14.554Z,1021.54
2022-12-17T08:21:14.542Z,1021.54
2022-12-17T08:22:14.560Z,1021.53
2022-12-17T08:23:14.524Z,1021.51
2022-12-17T08:24:14.511Z,1021.53
2022-12-17T08:25:14.497Z,1021.57
2022-12-17T08:26:14.494Z,1021.54
2022-12-17T08:27:14.482Z,1021.52
2022-12-17T08:28:41.221Z,1021.57
2022-12-17T08:29:15.454Z,1021.54
2022-12-17T08:30:14.451Z,1021.58
2022-12-17T08:31:14.469Z,1021.61
2022-12-17T08:32:14.462Z,1021.54
2022-12-17T08:33:14.442Z,1021.60
2022-12-17T08:34:14.412Z,1021.65
2022-12-17T08:35:14.390Z,1021.70
2022-12-17T08:36:14.385Z,1021.66
2022-12-17T08:37:14.404Z,1021.71
2022-12-17T08:38:14.373Z,1021.73
2022-12-17T08:39:14.386Z,1021.77
2022-12-17T08:40:14.341Z,1021.78
2022-12-17T08:41:14.326Z,1021.74
2022-12-17T08:42:14.348Z,1021.79
2022-12-17T08:43:14.339Z,1021.77
2022-12-17T08:44:14.343Z,1021.71
2022-12-17T08:45:14.281Z,1021.75
2022-12-17T08:46:14.354Z,1021.63
2022-12-17T08:47:14.266Z,1021.64
2022-12-17T08:48:14.256Z,1021.72
2022-12-17T08:49:14.267Z,1021.65
2022-12-17T08:50:14.257Z,1021.68
2022-12-17T08:51:14.225Z,1021.72
2022-12-17T08:52:14.209Z,1021.71
2022-12-17T08:53:14.203Z,1021.70
2022-12-17T08:54:14.191Z,1021.74
2022-12-17T08:55:14.201Z,1021.75
2022-12-17T08:56:14.211Z,1021.74
2022-12-17T08:57:22.571Z,1021.77
2022-12-17T08:58:15.154Z,1021.73
2022-12-17T08:59:14.139Z,1021.67
2022-12-17T09:00:14.127Z,1021.78
2022-12-17T09:01:14.247Z,1021.75
2022-12-17T09:02:14.348Z,1021.81
2022-12-17T09:03:14.220Z,1021.84
2022-12-17T09:04:14.083Z,1021.89
2022-12-17T09:05:14.092Z,1021.88
2022-12-17T09:06:14.088Z,1021.95
2022-12-17T09:07:14.045Z,1021.89
2022-12-17T09:08:14.041Z,1021.91
2022-12-17T09:09:14.031Z,1021.94
2022-12-17T09:10:14.022Z,1021.97
2022-12-17T09:11:14.026Z,1022.00
2022-12-17T09:12:14.034Z,1021.99
2022-12-17T09:13:13.981Z,1022.05
2022-12-17T09:14:13.979Z,1022.03
2022-12-17T09:15:13.962Z,1022.03
2022-12-17T09:16:14.019Z,1022.00
2022-12-17T09:17:13.963Z,1022.10
2022-12-17T09:18:13.936Z,1022.03
2022-12-17T09:19:13.921Z,1022.05
2022-12-17T09:20:13.915Z,1022.11
2022-12-17T09:21:13.921Z,1022.07
2022-12-17T09:22:13.915Z,1022.04
2022-12-17T09:23:13.887Z,1022.01
2022-12-17T09:24:13.876Z,1022.00
2022-12-17T09:25:13.859Z,1021.96
2022-12-17T09:26:13.852Z,1022.00
2022-12-17T09:27:13.856Z,1021.94
2022-12-17T09:28:13.825Z,1021.90
2022-12-17T09:29:13.814Z,1021.90
2022-12-17T09:30:13.804Z,1021.91
2022-12-17T09:31:13.807Z,1021.90
2022-12-17T09:32:13.805Z,1021.92
2022-12-17T09:33:13.766Z,1022.00
2022-12-17T09:34:13.790Z,1021.98
2022-12-17T09:35:13.744Z,1022.00
2022-12-17T09:36:13.744Z,1022.00
2022-12-17T09:37:13.750Z,1022.07
2022-12-17T09:38:13.718Z,1022.03
2022-12-17T09:39:13.709Z,1022.05
2022-12-17T09:40:13.713Z,1022.02
2022-12-17T09:41:13.682Z,1022.03
2022-12-17T09:42:13.683Z,1022.11
2022-12-17T09:43:13.708Z,1022.13
2022-12-17T09:44:13.655Z,1022.10
2022-12-17T09:45:13.663Z,1022.14
2022-12-17T09:46:13.705Z,1022.18
2022-12-17T09:47:13.622Z,1022.27
2022-12-17T09:48:13.638Z,1022.25
2022-12-17T09:49:13.603Z,1022.23
2022-12-17T09:50:13.608Z,1022.24
2022-12-17T09:51:13.577Z,1022.24
2022-12-17T09:52:13.568Z,1022.21
2022-12-17T09:53:13.576Z,1022.24
2022-12-17T09:54:13.546Z,1022.24
2022-12-17T09:55:13.568Z,1022.20
2022-12-17T09:56:13.528Z,1022.18
2022-12-17T09:57:13.511Z,1022.21
2022-12-17T09:58:13.506Z,1022.15
2022-12-17T09:59:13.497Z,1022.27
2022-12-17T10:00:13.501Z,1022.24
2022-12-17T10:01:13.560Z,1022.30
2022-12-17T10:02:13.608Z,1022.27
2022-12-17T10:03:13.553Z,1022.32
2022-12-17T10:04:13.464Z,1022.29
2022-12-17T10:05:13.428Z,1022.29
2022-12-17T10:06:16.745Z,1022.28
2022-12-17T10:07:14.408Z,1022.29
2022-12-17T10:08:13.397Z,1022.33
2022-12-17T10:09:13.423Z,1022.27
2022-12-17T10:10:13.381Z,1022.29
2022-12-17T10:11:13.364Z,1022.29
2022-12-17T10:12:13.363Z,1022.33
2022-12-17T10:13:13.343Z,1022.31
2022-12-17T10:14:13.356Z,1022.34
2022-12-17T10:15:13.337Z,1022.32
2022-12-17T10:16:13.368Z,1022.40
2022-12-17T10:17:13.305Z,1022.38
2022-12-17T10:18:13.296Z,1022.41
2022-12-17T10:19:13.277Z,1022.41
2022-12-17T10:20:13.290Z,1022.39
2022-12-17T10:21:13.254Z,1022.38
2022-12-17T10:22:13.246Z,1022.39
2022-12-17T10:23:13.236Z,1022.39
2022-12-17T10:24:18.433Z,1022.37
2022-12-17T10:25:14.255Z,1022.39
2022-12-17T10:26:13.207Z,1022.41
2022-12-17T10:27:13.190Z,1022.41
2022-12-17T10:28:13.192Z,1022.44
2022-12-17T10:29:13.173Z,1022.47
2022-12-17T10:30:13.200Z,1022.41
2022-12-17T10:31:13.214Z,1022.45
2022-12-17T10:32:13.145Z,1022.38
2022-12-17T10:33:13.130Z,1022.47
2022-12-17T10:34:13.117Z,1022.50
2022-12-17T10:35:13.105Z,1022.44
2022-12-17T10:36:13.120Z,1022.45
2022-12-17T10:37:13.095Z,1022.42
2022-12-17T10:38:13.079Z,1022.34
2022-12-17T10:39:13.064Z,1022.39
2022-12-17T10:40:13.059Z,1022.45
2022-12-17T10:41:13.075Z,1022.40
2022-12-17T10:42:13.064Z,1022.44
2022-12-17T10:43:13.026Z,1022.43
2022-12-17T10:44:13.014Z,1022.45
2022-12-17T10:45:12.998Z,1022.49
2022-12-17T10:46:13.066Z,1022.50
2022-12-17T10:47:13.002Z,1022.53
2022-12-17T10:48:12.966Z,1022.49
2022-12-17T10:49:12.964Z,1022.46
2022-12-17T10:50:12.949Z,1022.48
2022-12-17T10:51:12.942Z,1022.49
2022-12-17T10:52:12.949Z,1022.49
2022-12-17T10:53:12.911Z,1022.47
2022-12-17T10:54:12.908Z,1022.51
2022-12-17T10:55:12.887Z,1022.52
2022-12-17T10:56:12.887Z,1022.50
2022-12-17T10:57:12.909Z,1022.53
2022-12-17T10:58:12.884Z,1022.53
2022-12-17T10:59:12.869Z,1022.52
2022-12-17T11:00:12.837Z,1022.53
2022-12-17T11:01:12.905Z,1022.64
2022-12-17T11:02:12.988Z,1022.61
2022-12-17T11:03:12.954Z,1022.57
2022-12-17T11:04:12.805Z,1022.57
2022-12-17T11:05:12.784Z,1022.56
2022-12-17T11:06:12.792Z,1022.55
2022-12-17T11:07:12.759Z,1022.58
2022-12-17T11:08:12.778Z,1022.55
2022-12-17T11:09:12.738Z,1022.56
2022-12-17T11:10:12.744Z,1022.54
2022-12-17T11:11:12.715Z,1022.61
2022-12-17T11:12:12.711Z,1022.64
2022-12-17T11:13:12.740Z,1022.63
2022-12-17T11:14:12.695Z,1022.67
2022-12-17T11:15:12.681Z,1022.61
2022-12-17T11:16:12.709Z,1022.67
2022-12-17T11:17:12.656Z,1022.69
2022-12-17T11:18:12.666Z,1022.64
2022-12-17T11:19:12.643Z,1022.72
2022-12-17T11:20:12.647Z,1022.74
2022-12-17T11:21:12.614Z,1022.79
2022-12-17T11:22:12.596Z,1022.83
2022-12-17T11:23:12.596Z,1022.82
2022-12-17T11:24:15.360Z,1022.89
2022-12-17T11:25:13.589Z,1022.85
2022-12-17T11:26:12.579Z,1022.87
2022-12-17T11:27:12.567Z,1022.84
2022-12-17T11:28:12.539Z,1022.96
2022-12-17T11:29:12.545Z,1022.88
2022-12-17T11:30:12.536Z,1022.89
2022-12-17T11:31:12.572Z,1022.88
2022-12-17T11:32:12.517Z,1022.93
2022-12-17T11:33:12.491Z,1022.96
2022-12-17T11:34:12.474Z,1022.91
2022-12-17T11:35:12.472Z,1022.88
2022-12-17T11:36:12.447Z,1022.90
2022-12-17T11:37:12.480Z,1022.85
2022-12-17T11:38:12.430Z,1022.91
2022-12-17T11:39:12.424Z,1022.92
2022-12-17T11:40:12.422Z,1022.91
2022-12-17T11:41:12.399Z,1022.95
2022-12-17T11:42:12.417Z,1022.94
2022-12-17T11:43:12.381Z,1022.94
2022-12-17T11:44:12.363Z,1022.95
2022-12-17T11:45:12.424Z,1022.92
2022-12-17T11:46:12.368Z,1022.95
2022-12-17T11:47:12.357Z,1022.94
2022-12-17T11:48:12.346Z,1022.97
2022-12-17T11:49:12.318Z,1022.96
2022-12-17T11:50:12.318Z,1022.92
2022-12-17T11:51:12.293Z,1022.92
2022-12-17T11:52:12.285Z,1022.97
2022-12-17T11:53:12.308Z,1022.93
2022-12-17T11:54:12.258Z,1022.96
2022-12-17T11:55:12.249Z,1022.96
2022-12-17T11:56:12.235Z,1023.02
2022-12-17T11:57:12.233Z,1022.98
2022-12-17T11:58:12.222Z,1022.99
2022-12-17T11:59:12.225Z,1023.06
2022-12-17T12:00:12.322Z,1023.00
2022-12-17T12:01:12.310Z,1022.96
2022-12-17T12:02:12.183Z,1023.03
2022-12-17T12:03:12.340Z,1023.01
2022-12-17T12:04:12.260Z,1022.99
2022-12-17T12:05:12.147Z,1023.07